sensor_id;sensor_type;location;lat;lon;timestamp;P1;durP1;ratioP1;P2;durP2;ratioP2
24216;SDS011;12356;49.386;8.688;2022-12-07T00:02:14;12.63;;;7.85;;
24216;SDS011;12356;49.386;8.688;2022-12-07T00:04:45;12.65;;;8.30;;
24216;SDS011;12356;49.386;8.688;2022-12-07T00:07:15;16.20;;;8.27;;
24216;SDS011;12356;49.386;8.688;2022-12-07T00:09:46;13.63;;;8.65;;
24216;SDS011;12356;49.386;8.688;2022-12-07T00:12:17;13.23;;;8.32;;
24216;SDS011;12356;49.386;8.688;2022-12-07T00:14:47;16.65;;;8.88;;
24216;SDS011;12356;49.386;8.688;2022-12-07T00:17:18;15.25;;;8.95;;
24216;SDS011;12356;49.386;8.688;2022-12-07T00:19:48;16.55;;;9.45;;
24216;SDS011;12356;49.386;8.688;2022-12-07T00:22:19;17.50;;;9.25;;
24216;SDS011;12356;49.386;8.688;2022-12-07T00:24:50;16.77;;;9.43;;
24216;SDS011;12356;49.386;8.688;2022-12-07T00:27:20;14.45;;;8.57;;
24216;SDS011;12356;49.386;8.688;2022-12-07T00:29:51;14.00;;;8.55;;
24216;SDS011;12356;49.386;8.688;2022-12-07T00:32:21;15.25;;;8.40;;
24216;SDS011;12356;49.386;8.688;2022-12-07T00:34:52;15.55;;;8.40;;
24216;SDS011;12356;49.386;8.688;2022-12-07T00:37:23;13.98;;;8.57;;
24216;SDS011;12356;49.386;8.688;2022-12-07T00:39:53;15.20;;;8.55;;
24216;SDS011;12356;49.386;8.688;2022-12-07T00:42:24;13.55;;;7.93;;
24216;SDS011;12356;49.386;8.688;2022-12-07T00:44:54;13.32;;;8.38;;
24216;SDS011;12356;49.386;8.688;2022-12-07T00:47:25;13.63;;;8.35;;
24216;SDS011;12356;49.386;8.688;2022-12-07T00:49:56;15.25;;;8.38;;
24216;SDS011;12356;49.386;8.688;2022-12-07T00:52:26;13.40;;;8.65;;
24216;SDS011;12356;49.386;8.688;2022-12-07T00:54:57;13.75;;;8.20;;
24216;SDS011;12356;49.386;8.688;2022-12-07T00:57:27;13.77;;;8.30;;
24216;SDS011;12356;49.386;8.688;2022-12-07T01:00:01;16.05;;;7.93;;
24216;SDS011;12356;49.386;8.688;2022-12-07T01:02:31;12.85;;;8.48;;
24216;SDS011;12356;49.386;8.688;2022-12-07T01:05:02;12.15;;;7.75;;
24216;SDS011;12356;49.386;8.688;2022-12-07T01:07:33;14.32;;;8.35;;
24216;SDS011;12356;49.386;8.688;2022-12-07T01:10:04;15.40;;;8.75;;
24216;SDS011;12356;49.386;8.688;2022-12-07T01:12:35;14.02;;;8.45;;
24216;SDS011;12356;49.386;8.688;2022-12-07T01:15:06;13.85;;;8.30;;
24216;SDS011;12356;49.386;8.688;2022-12-07T01:17:37;14.43;;;8.20;;
24216;SDS011;12356;49.386;8.688;2022-12-07T01:20:08;13.05;;;8.55;;
24216;SDS011;12356;49.386;8.688;2022-12-07T01:22:40;16.23;;;8.30;;
24216;SDS011;12356;49.386;8.688;2022-12-07T01:25:11;16.00;;;8.88;;
24216;SDS011;12356;49.386;8.688;2022-12-07T01:27:42;12.93;;;8.48;;
24216;SDS011;12356;49.386;8.688;2022-12-07T01:30:12;13.20;;;8.20;;
24216;SDS011;12356;49.386;8.688;2022-12-07T01:32:43;15.15;;;8.60;;
24216;SDS011;12356;49.386;8.688;2022-12-07T01:35:14;13.02;;;8.07;;
24216;SDS011;12356;49.386;8.688;2022-12-07T01:37:45;14.25;;;8.07;;
24216;SDS011;12356;49.386;8.688;2022-12-07T01:40:15;14.35;;;7.78;;
24216;SDS011;12356;49.386;8.688;2022-12-07T01:42:46;15.35;;;8.10;;
24216;SDS011;12356;49.386;8.688;2022-12-07T01:48:11;15.93;;;8.70;;
24216;SDS011;12356;49.386;8.688;2022-12-07T01:50:45;17.73;;;9.07;;
24216;SDS011;12356;49.386;8.688;2022-12-07T01:53:20;13.70;;;8.07;;
24216;SDS011;12356;49.386;8.688;2022-12-07T01:55:54;14.05;;;8.25;;
24216;SDS011;12356;49.386;8.688;2022-12-07T01:58:28;14.50;;;8.60;;
24216;SDS011;12356;49.386;8.688;2022-12-07T02:00:59;13.52;;;8.30;;
24216;SDS011;12356;49.386;8.688;2022-12-07T02:03:37;16.35;;;8.60;;
24216;SDS011;12356;49.386;8.688;2022-12-07T02:06:11;14.85;;;8.20;;
24216;SDS011;12356;49.386;8.688;2022-12-07T02:08:46;13.13;;;7.85;;
24216;SDS011;12356;49.386;8.688;2022-12-07T02:11:17;15.93;;;8.85;;
24216;SDS011;12356;49.386;8.688;2022-12-07T02:13:48;13.82;;;8.20;;
24216;SDS011;12356;49.386;8.688;2022-12-07T02:19:14;14.82;;;8.50;;
24216;SDS011;12356;49.386;8.688;2022-12-07T02:24:53;13.15;;;8.70;;
24216;SDS011;12356;49.386;8.688;2022-12-07T02:27:31;16.08;;;8.27;;
24216;SDS011;12356;49.386;8.688;2022-12-07T02:30:20;14.10;;;8.25;;
24216;SDS011;12356;49.386;8.688;2022-12-07T02:32:56;15.00;;;8.43;;
24216;SDS011;12356;49.386;8.688;2022-12-07T02:35:33;12.68;;;7.82;;
24216;SDS011;12356;49.386;8.688;2022-12-07T02:41:00;14.27;;;8.10;;
24216;SDS011;12356;49.386;8.688;2022-12-07T02:43:38;13.40;;;7.88;;
24216;SDS011;12356;49.386;8.688;2022-12-07T02:46:13;14.88;;;8.45;;
24216;SDS011;12356;49.386;8.688;2022-12-07T02:48:47;13.93;;;8.25;;
24216;SDS011;12356;49.386;8.688;2022-12-07T02:51:19;15.55;;;7.93;;
24216;SDS011;12356;49.386;8.688;2022-12-07T02:53:51;16.40;;;8.55;;
24216;SDS011;12356;49.386;8.688;2022-12-07T02:56:31;14.82;;;7.93;;
24216;SDS011;12356;49.386;8.688;2022-12-07T03:05:07;12.20;;;7.60;;
24216;SDS011;12356;49.386;8.688;2022-12-07T03:08:02;12.25;;;7.82;;
24216;SDS011;12356;49.386;8.688;2022-12-07T03:13:29;14.38;;;8.00;;
24216;SDS011;12356;49.386;8.688;2022-12-07T03:18:55;13.77;;;7.75;;
24216;SDS011;12356;49.386;8.688;2022-12-07T03:21:49;14.07;;;7.97;;
24216;SDS011;12356;49.386;8.688;2022-12-07T03:24:27;11.88;;;7.45;;
24216;SDS011;12356;49.386;8.688;2022-12-07T03:27:08;12.95;;;7.85;;
24216;SDS011;12356;49.386;8.688;2022-12-07T03:29:47;13.23;;;8.23;;
24216;SDS011;12356;49.386;8.688;2022-12-07T03:32:27;13.00;;;7.82;;
24216;SDS011;12356;49.386;8.688;2022-12-07T03:35:05;14.20;;;8.35;;
24216;SDS011;12356;49.386;8.688;2022-12-07T03:37:53;13.25;;;8.13;;
24216;SDS011;12356;49.386;8.688;2022-12-07T03:40:34;14.48;;;8.63;;
24216;SDS011;12356;49.386;8.688;2022-12-07T03:43:09;13.43;;;8.33;;
24216;SDS011;12356;49.386;8.688;2022-12-07T03:45:44;14.02;;;8.77;;
24216;SDS011;12356;49.386;8.688;2022-12-07T03:48:37;14.55;;;8.60;;
24216;SDS011;12356;49.386;8.688;2022-12-07T03:51:21;16.33;;;9.00;;
24216;SDS011;12356;49.386;8.688;2022-12-07T03:53:58;16.40;;;9.23;;
24216;SDS011;12356;49.386;8.688;2022-12-07T03:56:45;15.43;;;9.35;;
24216;SDS011;12356;49.386;8.688;2022-12-07T03:59:17;16.17;;;9.75;;
24216;SDS011;12356;49.386;8.688;2022-12-07T04:01:53;15.75;;;9.13;;
24216;SDS011;12356;49.386;8.688;2022-12-07T04:04:25;14.45;;;8.82;;
24216;SDS011;12356;49.386;8.688;2022-12-07T04:06:56;14.63;;;9.20;;
24216;SDS011;12356;49.386;8.688;2022-12-07T04:09:27;16.10;;;9.07;;
24216;SDS011;12356;49.386;8.688;2022-12-07T04:11:57;15.43;;;8.85;;
24216;SDS011;12356;49.386;8.688;2022-12-07T04:14:28;13.38;;;8.57;;
24216;SDS011;12356;49.386;8.688;2022-12-07T04:16:59;15.52;;;9.32;;
24216;SDS011;12356;49.386;8.688;2022-12-07T04:19:33;17.25;;;8.77;;
24216;SDS011;12356;49.386;8.688;2022-12-07T04:22:05;15.27;;;8.98;;
24216;SDS011;12356;49.386;8.688;2022-12-07T04:24:36;15.43;;;9.15;;
24216;SDS011;12356;49.386;8.688;2022-12-07T04:27:06;14.73;;;9.10;;
24216;SDS011;12356;49.386;8.688;2022-12-07T04:29:37;14.98;;;9.20;;
24216;SDS011;12356;49.386;8.688;2022-12-07T04:32:08;16.13;;;9.43;;
24216;SDS011;12356;49.386;8.688;2022-12-07T04:34:38;15.73;;;9.15;;
24216;SDS011;12356;49.386;8.688;2022-12-07T04:37:09;13.02;;;8.60;;
24216;SDS011;12356;49.386;8.688;2022-12-07T04:39:40;13.93;;;8.68;;
24216;SDS011;12356;49.386;8.688;2022-12-07T04:42:11;15.50;;;9.00;;
24216;SDS011;12356;49.386;8.688;2022-12-07T04:44:42;12.40;;;8.48;;
24216;SDS011;12356;49.386;8.688;2022-12-07T04:47:14;14.80;;;8.57;;
24216;SDS011;12356;49.386;8.688;2022-12-07T04:49:45;14.93;;;8.82;;
24216;SDS011;12356;49.386;8.688;2022-12-07T04:52:16;13.07;;;8.50;;
24216;SDS011;12356;49.386;8.688;2022-12-07T04:54:46;12.73;;;8.10;;
24216;SDS011;12356;49.386;8.688;2022-12-07T04:57:17;14.60;;;8.55;;
24216;SDS011;12356;49.386;8.688;2022-12-07T04:59:48;14.35;;;8.35;;
24216;SDS011;12356;49.386;8.688;2022-12-07T05:02:18;12.40;;;8.07;;
24216;SDS011;12356;49.386;8.688;2022-12-07T05:04:49;13.00;;;8.40;;
24216;SDS011;12356;49.386;8.688;2022-12-07T05:07:19;15.35;;;8.70;;
24216;SDS011;12356;49.386;8.688;2022-12-07T05:09:50;14.35;;;8.55;;
24216;SDS011;12356;49.386;8.688;2022-12-07T05:12:21;13.30;;;8.60;;
24216;SDS011;12356;49.386;8.688;2022-12-07T05:14:51;16.15;;;9.02;;
24216;SDS011;12356;49.386;8.688;2022-12-07T05:17:22;13.95;;;8.68;;
24216;SDS011;12356;49.386;8.688;2022-12-07T05:19:52;14.02;;;9.32;;
24216;SDS011;12356;49.386;8.688;2022-12-07T05:22:23;14.32;;;8.50;;
24216;SDS011;12356;49.386;8.688;2022-12-07T05:24:58;15.77;;;8.30;;
24216;SDS011;12356;49.386;8.688;2022-12-07T05:27:28;17.90;;;10.30;;
24216;SDS011;12356;49.386;8.688;2022-12-07T05:29:59;14.60;;;9.23;;
24216;SDS011;12356;49.386;8.688;2022-12-07T05:32:29;14.48;;;9.15;;
24216;SDS011;12356;49.386;8.688;2022-12-07T05:35:00;15.15;;;8.80;;
24216;SDS011;12356;49.386;8.688;2022-12-07T05:37:31;13.55;;;8.48;;
24216;SDS011;12356;49.386;8.688;2022-12-07T05:40:02;13.50;;;8.65;;
24216;SDS011;12356;49.386;8.688;2022-12-07T05:42:33;15.53;;;9.23;;
24216;SDS011;12356;49.386;8.688;2022-12-07T05:45:04;14.98;;;9.13;;
24216;SDS011;12356;49.386;8.688;2022-12-07T05:47:36;13.02;;;8.73;;
24216;SDS011;12356;49.386;8.688;2022-12-07T05:50:07;13.98;;;9.45;;
24216;SDS011;12356;49.386;8.688;2022-12-07T05:52:37;15.88;;;9.32;;
24216;SDS011;12356;49.386;8.688;2022-12-07T05:55:08;15.98;;;9.75;;
24216;SDS011;12356;49.386;8.688;2022-12-07T05:57:38;15.30;;;9.50;;
24216;SDS011;12356;49.386;8.688;2022-12-07T06:00:09;14.68;;;8.70;;
24216;SDS011;12356;49.386;8.688;2022-12-07T06:02:41;16.30;;;9.63;;
24216;SDS011;12356;49.386;8.688;2022-12-07T06:05:11;15.25;;;9.55;;
24216;SDS011;12356;49.386;8.688;2022-12-07T06:07:42;15.30;;;9.35;;
24216;SDS011;12356;49.386;8.688;2022-12-07T06:10:12;15.25;;;9.82;;
24216;SDS011;12356;49.386;8.688;2022-12-07T06:12:43;14.57;;;9.13;;
24216;SDS011;12356;49.386;8.688;2022-12-07T06:15:16;14.48;;;9.02;;
24216;SDS011;12356;49.386;8.688;2022-12-07T06:17:47;15.43;;;9.15;;
24216;SDS011;12356;49.386;8.688;2022-12-07T06:20:17;16.25;;;9.30;;
24216;SDS011;12356;49.386;8.688;2022-12-07T06:22:48;16.38;;;9.95;;
24216;SDS011;12356;49.386;8.688;2022-12-07T06:25:19;16.17;;;9.85;;
24216;SDS011;12356;49.386;8.688;2022-12-07T06:27:49;16.75;;;9.60;;
24216;SDS011;12356;49.386;8.688;2022-12-07T06:30:20;17.27;;;10.05;;
24216;SDS011;12356;49.386;8.688;2022-12-07T06:32:50;17.83;;;10.45;;
24216;SDS011;12356;49.386;8.688;2022-12-07T06:35:21;17.48;;;10.02;;
24216;SDS011;12356;49.386;8.688;2022-12-07T06:37:51;18.60;;;10.30;;
24216;SDS011;12356;49.386;8.688;2022-12-07T06:40:22;16.65;;;10.23;;
24216;SDS011;12356;49.386;8.688;2022-12-07T06:42:53;17.30;;;10.32;;
24216;SDS011;12356;49.386;8.688;2022-12-07T06:45:23;18.55;;;10.95;;
24216;SDS011;12356;49.386;8.688;2022-12-07T06:47:54;20.80;;;10.75;;
24216;SDS011;12356;49.386;8.688;2022-12-07T06:50:25;17.95;;;10.95;;
24216;SDS011;12356;49.386;8.688;2022-12-07T06:52:56;16.52;;;10.25;;
24216;SDS011;12356;49.386;8.688;2022-12-07T06:55:26;16.65;;;10.77;;
24216;SDS011;12356;49.386;8.688;2022-12-07T06:57:57;17.77;;;10.55;;
24216;SDS011;12356;49.386;8.688;2022-12-07T07:00:28;19.30;;;10.95;;
24216;SDS011;12356;49.386;8.688;2022-12-07T07:02:59;19.45;;;11.07;;
24216;SDS011;12356;49.386;8.688;2022-12-07T07:05:29;17.65;;;10.48;;
24216;SDS011;12356;49.386;8.688;2022-12-07T07:08:00;17.98;;;10.38;;
24216;SDS011;12356;49.386;8.688;2022-12-07T07:10:31;19.10;;;10.40;;
24216;SDS011;12356;49.386;8.688;2022-12-07T07:13:01;16.20;;;9.90;;
24216;SDS011;12356;49.386;8.688;2022-12-07T07:15:32;16.70;;;10.60;;
24216;SDS011;12356;49.386;8.688;2022-12-07T07:18:04;18.42;;;9.95;;
24216;SDS011;12356;49.386;8.688;2022-12-07T07:20:34;17.58;;;10.18;;
24216;SDS011;12356;49.386;8.688;2022-12-07T07:23:05;16.23;;;10.43;;
24216;SDS011;12356;49.386;8.688;2022-12-07T07:25:37;15.63;;;9.80;;
24216;SDS011;12356;49.386;8.688;2022-12-07T07:28:07;17.58;;;10.05;;
24216;SDS011;12356;49.386;8.688;2022-12-07T07:30:38;20.10;;;10.57;;
24216;SDS011;12356;49.386;8.688;2022-12-07T07:33:09;17.33;;;9.57;;
24216;SDS011;12356;49.386;8.688;2022-12-07T07:35:39;17.83;;;10.15;;
24216;SDS011;12356;49.386;8.688;2022-12-07T07:38:10;21.35;;;11.00;;
24216;SDS011;12356;49.386;8.688;2022-12-07T07:40:41;21.00;;;10.23;;
24216;SDS011;12356;49.386;8.688;2022-12-07T07:43:11;16.55;;;10.07;;
24216;SDS011;12356;49.386;8.688;2022-12-07T07:45:42;16.23;;;9.80;;
24216;SDS011;12356;49.386;8.688;2022-12-07T07:48:13;16.77;;;9.57;;
24216;SDS011;12356;49.386;8.688;2022-12-07T07:50:44;16.10;;;9.73;;
24216;SDS011;12356;49.386;8.688;2022-12-07T07:53:15;15.50;;;10.18;;
24216;SDS011;12356;49.386;8.688;2022-12-07T07:55:52;18.23;;;10.48;;
24216;SDS011;12356;49.386;8.688;2022-12-07T07:58:23;17.75;;;10.25;;
24216;SDS011;12356;49.386;8.688;2022-12-07T08:00:54;17.95;;;10.00;;
24216;SDS011;12356;49.386;8.688;2022-12-07T08:03:24;16.77;;;9.73;;
24216;SDS011;12356;49.386;8.688;2022-12-07T08:05:55;15.63;;;9.45;;
24216;SDS011;12356;49.386;8.688;2022-12-07T08:08:26;17.98;;;9.82;;
24216;SDS011;12356;49.386;8.688;2022-12-07T08:10:56;16.40;;;9.77;;
24216;SDS011;12356;49.386;8.688;2022-12-07T08:13:30;16.70;;;10.07;;
24216;SDS011;12356;49.386;8.688;2022-12-07T08:16:04;18.38;;;10.68;;
24216;SDS011;12356;49.386;8.688;2022-12-07T08:18:39;18.60;;;9.80;;
24216;SDS011;12356;49.386;8.688;2022-12-07T08:21:11;19.77;;;10.70;;
24216;SDS011;12356;49.386;8.688;2022-12-07T08:23:43;20.08;;;10.90;;
24216;SDS011;12356;49.386;8.688;2022-12-07T08:26:15;19.17;;;10.57;;
24216;SDS011;12356;49.386;8.688;2022-12-07T08:28:46;18.15;;;10.38;;
24216;SDS011;12356;49.386;8.688;2022-12-07T08:31:17;19.10;;;10.27;;
24216;SDS011;12356;49.386;8.688;2022-12-07T08:33:48;18.17;;;10.70;;
24216;SDS011;12356;49.386;8.688;2022-12-07T08:36:19;17.63;;;10.50;;
24216;SDS011;12356;49.386;8.688;2022-12-07T08:38:51;18.45;;;10.82;;
24216;SDS011;12356;49.386;8.688;2022-12-07T08:41:22;18.55;;;10.68;;
24216;SDS011;12356;49.386;8.688;2022-12-07T08:43:53;18.10;;;10.93;;
24216;SDS011;12356;49.386;8.688;2022-12-07T08:46:25;19.90;;;10.77;;
24216;SDS011;12356;49.386;8.688;2022-12-07T08:51:37;20.58;;;10.70;;
24216;SDS011;12356;49.386;8.688;2022-12-07T08:54:10;19.05;;;11.18;;
24216;SDS011;12356;49.386;8.688;2022-12-07T08:56:43;20.33;;;10.77;;
24216;SDS011;12356;49.386;8.688;2022-12-07T08:59:15;21.00;;;11.05;;
24216;SDS011;12356;49.386;8.688;2022-12-07T09:01:47;21.30;;;12.27;;
24216;SDS011;12356;49.386;8.688;2022-12-07T09:04:18;19.75;;;11.43;;
24216;SDS011;12356;49.386;8.688;2022-12-07T09:06:50;19.70;;;11.27;;
24216;SDS011;12356;49.386;8.688;2022-12-07T09:09:21;18.50;;;11.55;;
24216;SDS011;12356;49.386;8.688;2022-12-07T09:11:51;18.65;;;11.50;;
24216;SDS011;12356;49.386;8.688;2022-12-07T09:14:22;22.40;;;12.13;;
24216;SDS011;12356;49.386;8.688;2022-12-07T09:16:53;19.75;;;10.70;;
24216;SDS011;12356;49.386;8.688;2022-12-07T09:19:24;25.00;;;12.30;;
24216;SDS011;12356;49.386;8.688;2022-12-07T09:21:54;20.17;;;10.85;;
24216;SDS011;12356;49.386;8.688;2022-12-07T09:24:25;21.58;;;12.00;;
24216;SDS011;12356;49.386;8.688;2022-12-07T09:26:56;20.45;;;11.93;;
24216;SDS011;12356;49.386;8.688;2022-12-07T09:29:27;21.63;;;12.65;;
24216;SDS011;12356;49.386;8.688;2022-12-07T09:31:58;19.58;;;12.18;;
24216;SDS011;12356;49.386;8.688;2022-12-07T09:34:30;20.67;;;11.32;;
24216;SDS011;12356;49.386;8.688;2022-12-07T09:37:02;19.38;;;11.63;;
24216;SDS011;12356;49.386;8.688;2022-12-07T09:39:33;22.98;;;11.82;;
24216;SDS011;12356;49.386;8.688;2022-12-07T09:42:04;22.20;;;12.73;;
24216;SDS011;12356;49.386;8.688;2022-12-07T09:44:35;24.77;;;12.68;;
24216;SDS011;12356;49.386;8.688;2022-12-07T09:47:07;20.02;;;12.15;;
24216;SDS011;12356;49.386;8.688;2022-12-07T09:49:40;20.42;;;12.00;;
24216;SDS011;12356;49.386;8.688;2022-12-07T09:52:17;22.88;;;11.90;;
24216;SDS011;12356;49.386;8.688;2022-12-07T09:54:51;20.08;;;12.07;;
24216;SDS011;12356;49.386;8.688;2022-12-07T09:57:27;23.13;;;12.13;;
24216;SDS011;12356;49.386;8.688;2022-12-07T10:00:04;22.88;;;11.90;;
24216;SDS011;12356;49.386;8.688;2022-12-07T10:02:42;21.92;;;12.25;;
24216;SDS011;12356;49.386;8.688;2022-12-07T10:05:20;19.85;;;11.65;;
24216;SDS011;12356;49.386;8.688;2022-12-07T10:08:15;19.08;;;11.00;;
24216;SDS011;12356;49.386;8.688;2022-12-07T10:10:50;19.27;;;11.50;;
24216;SDS011;12356;49.386;8.688;2022-12-07T10:13:33;22.75;;;11.50;;
24216;SDS011;12356;49.386;8.688;2022-12-07T10:16:06;25.60;;;11.93;;
24216;SDS011;12356;49.386;8.688;2022-12-07T10:18:57;23.65;;;11.95;;
24216;SDS011;12356;49.386;8.688;2022-12-07T10:24:46;21.10;;;12.38;;
24216;SDS011;12356;49.386;8.688;2022-12-07T10:29:50;23.25;;;12.10;;
24216;SDS011;12356;49.386;8.688;2022-12-07T10:32:32;22.33;;;11.85;;
24216;SDS011;12356;49.386;8.688;2022-12-07T10:38:07;19.27;;;11.63;;
24216;SDS011;12356;49.386;8.688;2022-12-07T10:40:46;20.10;;;11.55;;
24216;SDS011;12356;49.386;8.688;2022-12-07T10:43:18;20.27;;;11.70;;
24216;SDS011;12356;49.386;8.688;2022-12-07T10:51:13;19.30;;;11.27;;
24216;SDS011;12356;49.386;8.688;2022-12-07T10:54:10;22.17;;;11.70;;
24216;SDS011;12356;49.386;8.688;2022-12-07T11:11:09;19.98;;;12.20;;
24216;SDS011;12356;49.386;8.688;2022-12-07T11:21:58;21.33;;;11.68;;
24216;SDS011;12356;49.386;8.688;2022-12-07T11:27:51;22.77;;;12.50;;
24216;SDS011;12356;49.386;8.688;2022-12-07T11:31:13;20.05;;;12.00;;
24216;SDS011;12356;49.386;8.688;2022-12-07T11:34:15;21.42;;;12.27;;
24216;SDS011;12356;49.386;8.688;2022-12-07T11:36:51;21.95;;;12.48;;
24216;SDS011;12356;49.386;8.688;2022-12-07T11:39:34;21.55;;;12.68;;
24216;SDS011;12356;49.386;8.688;2022-12-07T11:45:00;20.88;;;12.52;;
24216;SDS011;12356;49.386;8.688;2022-12-07T11:50:27;23.17;;;12.52;;
24216;SDS011;12356;49.386;8.688;2022-12-07T11:55:48;21.13;;;11.90;;
24216;SDS011;12356;49.386;8.688;2022-12-07T11:58:41;21.08;;;12.27;;
24216;SDS011;12356;49.386;8.688;2022-12-07T12:06:41;21.95;;;12.55;;
24216;SDS011;12356;49.386;8.688;2022-12-07T12:09:15;23.00;;;12.27;;
24216;SDS011;12356;49.386;8.688;2022-12-07T12:17:56;21.38;;;12.32;;
24216;SDS011;12356;49.386;8.688;2022-12-07T12:20:39;21.10;;;12.20;;
24216;SDS011;12356;49.386;8.688;2022-12-07T12:23:16;22.63;;;11.18;;
24216;SDS011;12356;49.386;8.688;2022-12-07T12:25:58;20.70;;;11.40;;
24216;SDS011;12356;49.386;8.688;2022-12-07T12:33:51;20.75;;;12.57;;
24216;SDS011;12356;49.386;8.688;2022-12-07T12:39:16;20.40;;;11.57;;
24216;SDS011;12356;49.386;8.688;2022-12-07T12:54:30;19.63;;;10.85;;
24216;SDS011;12356;49.386;8.688;2022-12-07T13:13:00;17.63;;;10.32;;
24216;SDS011;12356;49.386;8.688;2022-12-07T13:15:53;20.08;;;11.18;;
24216;SDS011;12356;49.386;8.688;2022-12-07T13:18:44;19.00;;;10.50;;
24216;SDS011;12356;49.386;8.688;2022-12-07T13:26:22;18.85;;;10.43;;
24216;SDS011;12356;49.386;8.688;2022-12-07T13:31:54;17.48;;;10.27;;
24216;SDS011;12356;49.386;8.688;2022-12-07T13:34:28;18.00;;;10.00;;
24216;SDS011;12356;49.386;8.688;2022-12-07T13:37:08;10.77;;;6.40;;
24216;SDS011;12356;49.386;8.688;2022-12-07T13:40:00;11.05;;;6.43;;
24216;SDS011;12356;49.386;8.688;2022-12-07T13:42:46;11.30;;;6.22;;
24216;SDS011;12356;49.386;8.688;2022-12-07T13:45:21;15.07;;;7.00;;
24216;SDS011;12356;49.386;8.688;2022-12-07T13:48:27;9.88;;;5.00;;
24216;SDS011;12356;49.386;8.688;2022-12-07T13:51:03;9.77;;;4.95;;
24216;SDS011;12356;49.386;8.688;2022-12-07T13:53:34;10.57;;;5.13;;
24216;SDS011;12356;49.386;8.688;2022-12-07T13:58:48;15.50;;;8.82;;
24216;SDS011;12356;49.386;8.688;2022-12-07T14:01:19;15.98;;;9.30;;
24216;SDS011;12356;49.386;8.688;2022-12-07T14:03:49;15.25;;;8.82;;
24216;SDS011;12356;49.386;8.688;2022-12-07T14:06:23;18.80;;;8.93;;
24216;SDS011;12356;49.386;8.688;2022-12-07T14:09:06;15.10;;;8.65;;
24216;SDS011;12356;49.386;8.688;2022-12-07T14:11:51;20.02;;;9.15;;
24216;SDS011;12356;49.386;8.688;2022-12-07T14:14:27;17.30;;;9.23;;
24216;SDS011;12356;49.386;8.688;2022-12-07T14:17:12;14.95;;;8.75;;
24216;SDS011;12356;49.386;8.688;2022-12-07T14:19:51;15.00;;;9.18;;
24216;SDS011;12356;49.386;8.688;2022-12-07T14:25:14;18.05;;;9.35;;
24216;SDS011;12356;49.386;8.688;2022-12-07T14:30:29;14.80;;;8.50;;
24216;SDS011;12356;49.386;8.688;2022-12-07T14:35:33;16.77;;;9.57;;
24216;SDS011;12356;49.386;8.688;2022-12-07T14:38:04;18.98;;;9.50;;
24216;SDS011;12356;49.386;8.688;2022-12-07T14:40:34;18.42;;;9.63;;
24216;SDS011;12356;49.386;8.688;2022-12-07T14:43:08;18.63;;;9.82;;
24216;SDS011;12356;49.386;8.688;2022-12-07T14:45:42;18.92;;;10.27;;
24216;SDS011;12356;49.386;8.688;2022-12-07T14:48:14;17.52;;;10.80;;
24216;SDS011;12356;49.386;8.688;2022-12-07T14:50:46;18.50;;;10.77;;
24216;SDS011;12356;49.386;8.688;2022-12-07T14:53:21;21.70;;;10.77;;
24216;SDS011;12356;49.386;8.688;2022-12-07T14:55:59;20.33;;;10.50;;
24216;SDS011;12356;49.386;8.688;2022-12-07T14:58:30;22.80;;;10.50;;
24216;SDS011;12356;49.386;8.688;2022-12-07T15:01:01;20.40;;;11.18;;
24216;SDS011;12356;49.386;8.688;2022-12-07T15:03:31;20.40;;;11.23;;
24216;SDS011;12356;49.386;8.688;2022-12-07T15:08:35;20.05;;;10.98;;
24216;SDS011;12356;49.386;8.688;2022-12-07T15:11:06;19.98;;;11.00;;
24216;SDS011;12356;49.386;8.688;2022-12-07T15:13:39;21.15;;;11.57;;
24216;SDS011;12356;49.386;8.688;2022-12-07T15:16:28;20.90;;;12.00;;
24216;SDS011;12356;49.386;8.688;2022-12-07T15:18:59;21.05;;;11.50;;
24216;SDS011;12356;49.386;8.688;2022-12-07T15:21:29;21.98;;;11.50;;
24216;SDS011;12356;49.386;8.688;2022-12-07T15:24:00;26.77;;;12.10;;
24216;SDS011;12356;49.386;8.688;2022-12-07T15:26:31;22.17;;;13.25;;
24216;SDS011;12356;49.386;8.688;2022-12-07T15:29:02;20.80;;;11.98;;
24216;SDS011;12356;49.386;8.688;2022-12-07T15:31:33;22.60;;;11.90;;
24216;SDS011;12356;49.386;8.688;2022-12-07T15:34:04;19.60;;;11.32;;
24216;SDS011;12356;49.386;8.688;2022-12-07T15:36:35;20.77;;;11.82;;
24216;SDS011;12356;49.386;8.688;2022-12-07T15:39:06;18.98;;;11.13;;
24216;SDS011;12356;49.386;8.688;2022-12-07T15:41:36;28.20;;;13.55;;
24216;SDS011;12356;49.386;8.688;2022-12-07T15:44:10;27.38;;;14.32;;
24216;SDS011;12356;49.386;8.688;2022-12-07T15:47:00;19.05;;;11.23;;
24216;SDS011;12356;49.386;8.688;2022-12-07T15:49:31;23.38;;;11.90;;
24216;SDS011;12356;49.386;8.688;2022-12-07T15:52:01;22.63;;;12.50;;
24216;SDS011;12356;49.386;8.688;2022-12-07T15:54:32;21.77;;;12.20;;
24216;SDS011;12356;49.386;8.688;2022-12-07T15:57:03;19.30;;;10.70;;
24216;SDS011;12356;49.386;8.688;2022-12-07T15:59:33;20.58;;;10.57;;
24216;SDS011;12356;49.386;8.688;2022-12-07T16:02:04;17.98;;;9.88;;
24216;SDS011;12356;49.386;8.688;2022-12-07T16:04:35;15.45;;;9.50;;
24216;SDS011;12356;49.386;8.688;2022-12-07T16:07:06;15.35;;;8.90;;
24216;SDS011;12356;49.386;8.688;2022-12-07T16:09:37;19.58;;;9.30;;
24216;SDS011;12356;49.386;8.688;2022-12-07T16:12:08;15.90;;;9.02;;
24216;SDS011;12356;49.386;8.688;2022-12-07T16:14:40;14.13;;;8.77;;
24216;SDS011;12356;49.386;8.688;2022-12-07T16:17:11;17.02;;;9.30;;
24216;SDS011;12356;49.386;8.688;2022-12-07T16:19:42;18.15;;;9.40;;
24216;SDS011;12356;49.386;8.688;2022-12-07T16:22:12;16.27;;;9.50;;
24216;SDS011;12356;49.386;8.688;2022-12-07T16:24:43;18.23;;;11.35;;
24216;SDS011;12356;49.386;8.688;2022-12-07T16:27:14;20.90;;;11.45;;
24216;SDS011;12356;49.386;8.688;2022-12-07T16:29:44;17.50;;;11.23;;
24216;SDS011;12356;49.386;8.688;2022-12-07T16:32:15;21.13;;;11.50;;
24216;SDS011;12356;49.386;8.688;2022-12-07T16:34:45;17.83;;;11.57;;
24216;SDS011;12356;49.386;8.688;2022-12-07T16:37:16;18.30;;;11.05;;
24216;SDS011;12356;49.386;8.688;2022-12-07T16:39:47;19.48;;;10.75;;
24216;SDS011;12356;49.386;8.688;2022-12-07T16:42:17;16.15;;;10.23;;
24216;SDS011;12356;49.386;8.688;2022-12-07T16:44:48;18.30;;;10.70;;
24216;SDS011;12356;49.386;8.688;2022-12-07T16:47:19;18.45;;;10.82;;
24216;SDS011;12356;49.386;8.688;2022-12-07T16:49:49;28.80;;;13.82;;
24216;SDS011;12356;49.386;8.688;2022-12-07T16:52:21;22.35;;;12.13;;
24216;SDS011;12356;49.386;8.688;2022-12-07T16:54:51;40.78;;;18.63;;
24216;SDS011;12356;49.386;8.688;2022-12-07T16:57:22;27.50;;;15.70;;
24216;SDS011;12356;49.386;8.688;2022-12-07T16:59:53;22.35;;;12.63;;
24216;SDS011;12356;49.386;8.688;2022-12-07T17:02:23;21.45;;;12.13;;
24216;SDS011;12356;49.386;8.688;2022-12-07T17:04:54;18.48;;;12.02;;
24216;SDS011;12356;49.386;8.688;2022-12-07T17:07:25;18.92;;;10.60;;
24216;SDS011;12356;49.386;8.688;2022-12-07T17:09:55;21.17;;;11.93;;
24216;SDS011;12356;49.386;8.688;2022-12-07T17:12:26;24.63;;;14.98;;
24216;SDS011;12356;49.386;8.688;2022-12-07T17:14:56;26.92;;;14.65;;
24216;SDS011;12356;49.386;8.688;2022-12-07T17:17:56;19.58;;;11.45;;
24216;SDS011;12356;49.386;8.688;2022-12-07T17:20:27;20.92;;;11.73;;
24216;SDS011;12356;49.386;8.688;2022-12-07T17:22:58;21.27;;;11.10;;
24216;SDS011;12356;49.386;8.688;2022-12-07T17:25:29;20.45;;;11.43;;
24216;SDS011;12356;49.386;8.688;2022-12-07T17:27:59;23.55;;;12.63;;
24216;SDS011;12356;49.386;8.688;2022-12-07T17:30:30;20.35;;;12.68;;